Time,TemperatureF,DewpointF,PressureIn,WindDirection,WindDirectionDegrees,WindSpeedMPH,WindSpeedGustMPH,Humidity,HourlyPrecipIn,Conditions,Clouds,dailyrainin,SoftwareType,DateUTC
2013-04-18 00:00:00,45.7,42.4,30.00,ESE,104,1.0,9.0,88,0.04,,---,0.00,VWS V14.01,2013-04-18 05:00:00,
2013-04-18 00:01:00,45.7,42.4,29.99,East,79,4.0,10.0,88,0.00,,---,0.00,VWS V14.01,2013-04-18 05:01:00,
2013-04-18 00:06:00,45.8,42.2,29.99,ENE,70,8.0,10.0,87,0.00,,---,0.00,VWS V14.01,2013-04-18 05:06:00,
2013-04-18 00:11:00,45.8,42.2,29.99,NE,54,3.0,10.0,87,0.00,,---,0.00,VWS V14.01,2013-04-18 05:11:00,
2013-04-18 00:16:00,45.8,42.2,29.98,NE,40,4.0,10.0,87,0.00,,---,0.00,VWS V14.01,2013-04-18 05:16:00,
2013-04-18 00:21:00,45.9,42.3,29.99,East,100,1.0,10.0,87,0.00,,---,0.00,VWS V14.01,2013-04-18 05:21:00,
2013-04-18 00:26:00,46.0,42.0,29.98,ENE,64,5.0,10.0,86,0.00,,---,0.00,VWS V14.01,2013-04-18 05:26:00,
2013-04-18 00:30:00,46.1,42.2,29.98,East,85,4.0,10.0,86,0.00,,---,0.00,VWS V14.01,2013-04-18 05:30:00,
2013-04-18 00:31:00,46.2,42.0,29.96,East,101,7.0,13.0,85,0.00,,---,0.00,VWS V14.01,2013-04-18 05:31:00,
2013-04-18 00:36:00,46.4,41.5,29.97,East,94,2.0,13.0,83,0.00,,---,0.00,VWS V14.01,2013-04-18 05:36:00,
2013-04-18 00:41:00,46.5,41.3,29.97,ESE,117,2.0,13.0,82,0.00,,---,0.00,VWS V14.01,2013-04-18 05:41:00,
2013-04-18 00:46:00,46.5,41.3,29.97,ESE,108,1.0,13.0,82,0.00,,---,0.00,VWS V14.01,2013-04-18 05:46:00,
2013-04-18 00:51:00,46.5,41.0,29.96,East,94,2.0,13.0,81,0.00,,---,0.00,VWS V14.01,2013-04-18 05:51:00,
2013-04-18 00:56:00,46.4,40.9,29.95,East,89,4.0,13.0,81,0.00,,---,0.00,VWS V14.01,2013-04-18 05:56:00,
2013-04-18 01:00:00,46.4,40.9,29.95,ENE,64,3.0,13.0,81,0.00,,---,0.00,VWS V14.01,2013-04-18 06:00:00,
2013-04-18 01:01:00,46.3,40.8,29.95,ESE,105,5.0,8.0,81,0.00,,---,0.00,VWS V14.01,2013-04-18 06:01:00,
2013-04-18 01:06:00,46.2,40.7,29.95,East,91,3.0,11.0,81,0.00,,---,0.00,VWS V14.01,2013-04-18 06:06:00,
2013-04-18 01:12:00,46.0,40.5,29.95,NNE,30,3.0,11.0,81,0.00,,---,0.00,VWS V14.01,2013-04-18 06:12:00,
2013-04-18 01:16:00,45.9,40.4,29.95,SE,142,7.0,11.0,81,0.00,,---,0.00,VWS V14.01,2013-04-18 06:16:00,
2013-04-18 01:21:00,45.8,40.6,29.94,East,82,5.0,11.0,82,0.00,,---,0.00,VWS V14.01,2013-04-18 06:21:00,
2013-04-18 01:26:00,45.7,40.5,29.94,East,99,4.0,11.0,82,0.00,,---,0.00,VWS V14.01,2013-04-18 06:26:00,
2013-04-18 01:30:00,45.7,40.5,29.94,SSE,159,2.0,11.0,82,0.00,,---,0.00,VWS V14.01,2013-04-18 06:30:00,
2013-04-18 01:32:00,45.6,40.7,29.94,East,96,3.0,7.0,83,0.00,,---,0.00,VWS V14.01,2013-04-18 06:32:00,
2013-04-18 01:37:00,45.7,40.8,29.94,ENE,76,3.0,8.0,83,0.00,,---,0.00,VWS V14.01,2013-04-18 06:37:00,
2013-04-18 01:42:00,45.8,40.9,29.93,ENE,70,4.0,8.0,83,0.00,,---,0.00,VWS V14.01,2013-04-18 06:42:00,
2013-04-18 01:47:00,45.8,40.9,29.93,ESE,117,2.0,8.0,83,0.00,,---,0.00,VWS V14.01,2013-04-18 06:47:00,
2013-04-18 01:52:00,45.8,40.9,29.92,ESE,108,2.0,8.0,83,0.00,,---,0.00,VWS V14.01,2013-04-18 06:52:00,
2013-04-18 01:57:00,45.9,41.0,29.92,East,91,2.0,8.0,83,0.00,,---,0.00,VWS V14.01,2013-04-18 06:57:00,
2013-04-18 02:00:00,45.8,41.2,29.92,SSE,154,1.0,8.0,84,0.00,,---,0.00,VWS V14.01,2013-04-18 07:00:00,
2013-04-18 02:02:00,45.9,41.0,29.91,ENE,75,5.0,7.0,83,0.00,,---,0.00,VWS V14.01,2013-04-18 07:02:00,
2013-04-18 02:07:00,45.8,41.2,29.91,East,93,2.0,7.0,84,0.00,,---,0.00,VWS V14.01,2013-04-18 07:07:00,
2013-04-18 02:12:00,45.8,41.2,29.91,East,87,2.0,7.0,84,0.00,,---,0.00,VWS V14.01,2013-04-18 07:12:00,
2013-04-18 02:16:00,45.8,41.2,29.90,SE,130,3.0,7.0,84,0.00,,---,0.00,VWS V14.01,2013-04-18 07:16:00,
2013-04-18 02:21:00,45.7,41.2,29.90,SSE,148,2.0,7.0,84,0.00,,---,0.00,VWS V14.01,2013-04-18 07:21:00,
2013-04-18 02:26:00,45.8,41.2,29.90,NE,54,2.0,7.0,84,0.00,,---,0.00,VWS V14.01,2013-04-18 07:26:00,
2013-04-18 02:30:00,45.7,41.2,29.90,East,89,2.0,7.0,84,0.00,,---,0.00,VWS V14.01,2013-04-18 07:30:00,
2013-04-18 02:31:00,45.7,41.5,29.90,East,100,3.0,6.0,85,0.00,,---,0.00,VWS V14.01,2013-04-18 07:31:00,
2013-04-18 02:37:00,45.8,41.5,29.89,SE,134,2.0,6.0,85,0.00,,---,0.00,VWS V14.01,2013-04-18 07:37:00,
2013-04-18 02:42:00,45.8,41.2,29.89,ENE,60,2.0,6.0,84,0.00,,---,0.00,VWS V14.01,2013-04-18 07:42:00,
2013-04-18 02:47:00,45.9,41.7,29.88,ESE,110,1.0,6.0,85,0.00,,---,0.00,VWS V14.01,2013-04-18 07:47:00,
2013-04-18 02:52:00,45.8,41.5,29.88,ENE,64,0.0,6.0,85,0.00,,---,0.00,VWS V14.01,2013-04-18 07:52:00,
2013-04-18 02:57:00,45.7,41.8,29.87,East,87,2.0,6.0,86,0.00,,---,0.00,VWS V14.01,2013-04-18 07:57:00,
2013-04-18 03:00:00,45.7,41.8,29.87,East,101,2.0,6.0,86,0.00,,---,0.00,VWS V14.01,2013-04-18 08:00:00,
2013-04-18 03:02:00,45.7,41.8,29.87,SE,135,1.0,5.0,86,0.00,,---,0.00,VWS V14.01,2013-04-18 08:02:00,
2013-04-18 03:07:00,45.7,41.8,29.87,ESE,115,4.0,7.0,86,0.00,,---,0.00,VWS V14.01,2013-04-18 08:07:00,
2013-04-18 03:11:00,45.6,41.7,29.86,NE,53,1.0,8.0,86,0.00,,---,0.00,VWS V14.01,2013-04-18 08:11:00,
2013-04-18 03:16:00,45.5,41.6,29.86,SE,141,0.0,8.0,86,0.00,,---,0.00,VWS V14.01,2013-04-18 08:16:00,
2013-04-18 03:21:00,45.5,41.9,29.86,ESE,105,3.0,8.0,87,0.00,,---,0.00,VWS V14.01,2013-04-18 08:21:00,
2013-04-18 03:26:00,45.5,41.9,29.85,ENE,73,1.0,8.0,87,0.00,,---,0.00,VWS V14.01,2013-04-18 08:26:00,
2013-04-18 03:30:00,45.5,41.9,29.86,SSE,154,2.0,8.0,87,0.00,,---,0.00,VWS V14.01,2013-04-18 08:30:00,
2013-04-18 03:31:00,45.5,42.2,29.85,ESE,114,1.0,5.0,88,0.00,,---,0.00,VWS V14.01,2013-04-18 08:31:00,
2013-04-18 03:36:00,45.5,42.2,29.85,ESE,108,1.0,5.0,88,0.00,,---,0.00,VWS V14.01,2013-04-18 08:36:00,
2013-04-18 03:42:00,45.5,42.2,29.85,SE,127,0.0,5.0,88,0.00,,---,0.00,VWS V14.01,2013-04-18 08:42:00,
2013-04-18 03:47:00,45.5,42.2,29.85,East,94,0.0,5.0,88,0.00,,---,0.00,VWS V14.01,2013-04-18 08:47:00,
2013-04-18 03:52:00,45.5,42.5,29.85,SE,129,0.0,5.0,89,0.00,,---,0.00,VWS V14.01,2013-04-18 08:52:00,
2013-04-18 03:57:00,45.5,42.5,29.84,East,101,0.0,5.0,89,0.00,,---,0.00,VWS V14.01,2013-04-18 08:57:00,
2013-04-18 04:00:00,45.5,42.5,29.84,SSE,154,1.0,5.0,89,0.00,,---,0.00,VWS V14.01,2013-04-18 09:00:00,
2013-04-18 04:02:00,45.5,42.5,29.84,ESE,103,0.0,3.0,89,0.00,,---,0.00,VWS V14.01,2013-04-18 09:02:00,
2013-04-18 04:07:00,45.5,42.7,29.84,East,96,0.0,5.0,90,0.00,,---,0.00,VWS V14.01,2013-04-18 09:07:00,
2013-04-18 04:12:00,45.6,42.8,29.84,ESE,117,0.0,5.0,90,0.00,,---,0.00,VWS V14.01,2013-04-18 09:12:00,
2013-04-18 04:17:00,45.5,42.7,29.84,ENE,60,0.0,5.0,90,0.00,,---,0.00,VWS V14.01,2013-04-18 09:17:00,
2013-04-18 04:22:00,45.5,42.7,29.84,East,94,1.0,5.0,90,0.00,,---,0.00,VWS V14.01,2013-04-18 09:22:00,
2013-04-18 04:27:00,45.5,43.0,29.84,ESE,117,0.0,5.0,91,0.00,,---,0.00,VWS V14.01,2013-04-18 09:27:00,
2013-04-18 04:30:00,45.6,43.1,29.84,ESE,110,0.0,5.0,91,0.00,,---,0.00,VWS V14.01,2013-04-18 09:30:00,
2013-04-18 04:32:00,45.7,43.2,29.84,East,87,0.0,2.0,91,0.00,,---,0.00,VWS V14.01,2013-04-18 09:32:00,
2013-04-18 04:37:00,45.9,43.7,29.83,ENE,73,1.0,2.0,92,0.00,,---,0.00,VWS V14.01,2013-04-18 09:37:00,
2013-04-18 04:42:00,46.3,44.1,29.83,SE,134,1.0,3.0,92,0.00,,---,0.00,VWS V14.01,2013-04-18 09:42:00,
2013-04-18 04:47:00,46.5,44.3,29.83,ESE,110,1.0,3.0,92,0.00,,---,0.00,VWS V14.01,2013-04-18 09:47:00,
2013-04-18 04:51:00,46.9,45.0,29.83,SE,139,0.0,3.0,93,0.00,,---,0.00,VWS V14.01,2013-04-18 09:51:00,
2013-04-18 04:56:00,47.3,45.4,29.83,ESE,108,0.0,3.0,93,0.00,,---,0.00,VWS V14.01,2013-04-18 09:56:00,
2013-04-18 05:00:00,47.4,45.5,29.83,ESE,108,0.0,3.0,93,0.00,,---,0.00,VWS V14.01,2013-04-18 10:00:00,
2013-04-18 05:01:00,47.6,45.7,29.83,ESE,107,0.0,1.0,93,0.00,,---,0.00,VWS V14.01,2013-04-18 10:01:00,
2013-04-18 05:06:00,48.1,46.5,29.82,SE,139,1.0,3.0,94,0.00,,---,0.00,VWS V14.01,2013-04-18 10:06:00,
2013-04-18 05:11:00,48.7,47.0,29.82,SSE,156,1.0,4.0,94,0.00,,---,0.00,VWS V14.01,2013-04-18 10:11:00,
2013-04-18 05:16:00,49.4,48.0,29.82,SE,130,1.0,4.0,95,0.00,,---,0.00,VWS V14.01,2013-04-18 10:16:00,
2013-04-18 05:21:00,50.1,48.7,29.81,SSE,162,0.0,4.0,95,0.00,,---,0.00,VWS V14.01,2013-04-18 10:21:00,
2013-04-18 05:27:00,50.7,49.3,29.81,SSE,158,3.0,6.0,95,0.00,,---,0.00,VWS V14.01,2013-04-18 10:27:00,
2013-04-18 05:30:00,50.9,49.5,29.81,ESE,106,2.0,6.0,95,0.00,,---,0.00,VWS V14.01,2013-04-18 10:30:00,
2013-04-18 05:32:00,51.3,49.9,29.81,SSW,197,2.0,6.0,95,0.00,,---,0.00,VWS V14.01,2013-04-18 10:32:00,
2013-04-18 05:37:00,51.7,50.0,29.81,SE,135,1.0,6.0,94,0.00,,---,0.00,VWS V14.01,2013-04-18 10:37:00,
2013-04-18 05:42:00,51.8,50.1,29.80,SE,132,0.0,6.0,94,0.00,,---,0.00,VWS V14.01,2013-04-18 10:42:00,
2013-04-18 05:47:00,52.1,50.4,29.80,East,98,3.0,6.0,94,0.00,,---,0.00,VWS V14.01,2013-04-18 10:47:00,
2013-04-18 05:52:00,52.3,50.6,29.81,SE,141,0.0,6.0,94,0.00,,---,0.00,VWS V14.01,2013-04-18 10:52:00,
2013-04-18 05:57:00,52.4,50.7,29.80,SSE,162,1.0,6.0,94,0.00,,---,0.00,VWS V14.01,2013-04-18 10:57:00,
2013-04-18 06:00:00,52.5,50.8,29.80,SSE,162,0.0,6.0,94,0.00,,---,0.00,VWS V14.01,2013-04-18 11:00:00,
2013-04-18 06:02:00,52.6,50.9,29.80,SE,129,1.0,2.0,94,0.00,,---,0.00,VWS V14.01,2013-04-18 11:02:00,
2013-04-18 06:07:00,52.9,51.5,29.80,SE,139,2.0,5.0,95,0.00,,---,0.00,VWS V14.01,2013-04-18 11:07:00,
2013-04-18 06:11:00,53.2,51.8,29.80,SSE,155,0.0,5.0,95,0.00,,---,0.00,VWS V14.01,2013-04-18 11:11:00,
2013-04-18 06:16:00,53.4,52.0,29.80,ESE,117,1.0,5.0,95,0.00,,---,0.00,VWS V14.01,2013-04-18 11:16:00,
2013-04-18 06:21:00,53.9,52.8,29.80,ENE,77,1.0,5.0,96,0.00,,---,0.00,VWS V14.01,2013-04-18 11:21:00,
2013-04-18 06:27:00,54.7,53.6,29.80,ESE,117,0.0,5.0,96,0.00,,---,0.00,VWS V14.01,2013-04-18 11:27:00,
2013-04-18 06:30:00,54.9,53.8,29.79,ESE,112,1.0,5.0,96,0.00,,---,0.00,VWS V14.01,2013-04-18 11:30:00,
2013-04-18 06:32:00,55.7,54.6,29.79,SSW,211,1.0,9.0,96,0.00,,---,0.00,VWS V14.01,2013-04-18 11:32:00,
2013-04-18 06:37:00,56.7,55.9,29.79,SE,124,2.0,9.0,97,0.00,,---,0.00,VWS V14.01,2013-04-18 11:37:00,
2013-04-18 06:42:00,58.0,56.9,29.80,East,94,3.0,9.0,96,0.00,,---,0.00,VWS V14.01,2013-04-18 11:42:00,
2013-04-18 06:46:00,59.2,57.8,29.80,South,188,2.0,9.0,95,0.00,,---,0.00,VWS V14.01,2013-04-18 11:46:00,
2013-04-18 06:51:00,60.3,58.0,29.80,South,191,5.0,9.0,92,0.00,,---,0.00,VWS V14.01,2013-04-18 11:51:00,
2013-04-18 06:56:00,61.3,58.7,29.79,SSE,164,2.0,11.0,91,0.00,,---,0.00,VWS V14.01,2013-04-18 11:56:00,
2013-04-18 07:00:00,61.5,58.5,29.79,West,262,2.0,11.0,90,0.00,,---,0.00,VWS V14.01,2013-04-18 12:00:00,
2013-04-18 07:01:00,62.1,58.8,29.79,South,177,2.0,6.0,89,0.00,,---,0.00,VWS V14.01,2013-04-18 12:01:00,
2013-04-18 07:06:00,62.9,59.0,29.79,SW,236,1.0,11.0,87,0.00,,---,0.00,VWS V14.01,2013-04-18 12:06:00,
2013-04-18 07:11:00,63.5,59.2,29.78,SSE,152,5.0,14.0,86,0.00,,---,0.00,VWS V14.01,2013-04-18 12:11:00,
2013-04-18 07:17:00,63.9,59.3,29.78,South,181,3.0,14.0,85,0.00,,---,0.00,VWS V14.01,2013-04-18 12:17:00,
2013-04-18 07:21:00,64.3,59.4,29.78,SSW,211,6.0,14.0,84,0.00,,---,0.00,VWS V14.01,2013-04-18 12:21:00,
2013-04-18 07:26:00,64.8,59.9,29.78,SW,225,4.0,14.0,84,0.00,,---,0.00,VWS V14.01,2013-04-18 12:26:00,
2013-04-18 07:30:00,64.9,60.0,29.78,ESE,122,5.0,14.0,84,0.00,,---,0.00,VWS V14.01,2013-04-18 12:30:00,
2013-04-18 07:31:00,65.1,59.8,29.78,ESE,118,2.0,9.0,83,0.00,,---,0.00,VWS V14.01,2013-04-18 12:31:00,
2013-04-18 07:36:00,65.4,60.1,29.78,SSW,210,9.0,11.0,83,0.00,,---,0.00,VWS V14.01,2013-04-18 12:36:00,
2013-04-18 07:41:00,65.7,60.1,29.77,South,186,4.0,11.0,82,0.00,,---,0.00,VWS V14.01,2013-04-18 12:41:00,
2013-04-18 07:46:00,65.9,60.3,29.77,SE,136,3.0,11.0,82,0.00,,---,0.00,VWS V14.01,2013-04-18 12:46:00,
2013-04-18 07:51:00,66.0,60.3,29.77,WSW,243,6.0,11.0,82,0.00,,---,0.00,VWS V14.01,2013-04-18 12:51:00,
2013-04-18 07:56:00,66.3,60.3,29.77,South,188,8.0,13.0,81,0.00,,---,0.00,VWS V14.01,2013-04-18 12:56:00,
2013-04-18 08:00:00,66.4,60.4,29.77,SSW,211,4.0,13.0,81,0.00,,---,0.00,VWS V14.01,2013-04-18 13:00:00,
2013-04-18 08:02:00,66.7,60.7,29.77,NE,53,1.0,10.0,81,0.00,,---,0.00,VWS V14.01,2013-04-18 13:02:00,
2013-04-18 08:06:00,67.1,60.7,29.77,SSW,211,4.0,12.0,80,0.00,,---,0.00,VWS V14.01,2013-04-18 13:06:00,
2013-04-18 08:12:00,67.5,61.5,29.77,NNE,19,2.0,20.0,81,0.00,,---,0.00,VWS V14.01,2013-04-18 13:12:00,
2013-04-18 08:17:00,67.9,61.5,29.76,WSW,249,6.0,20.0,80,0.00,,---,0.00,VWS V14.01,2013-04-18 13:17:00,
2013-04-18 08:22:00,67.9,61.5,29.76,SW,222,8.0,20.0,80,0.00,,---,0.00,VWS V14.01,2013-04-18 13:22:00,
2013-04-18 08:27:00,67.9,61.5,29.76,SE,139,4.0,20.0,80,0.00,,---,0.00,VWS V14.01,2013-04-18 13:27:00,
2013-04-18 08:30:00,67.9,61.5,29.76,SSW,204,13.0,20.0,80,0.00,,---,0.00,VWS V14.01,2013-04-18 13:30:00,
2013-04-18 08:32:00,68.0,61.6,29.76,South,169,4.0,13.0,80,0.00,,---,0.00,VWS V14.01,2013-04-18 13:32:00,
2013-04-18 08:37:00,68.4,62.3,29.76,SW,226,10.0,13.0,81,0.00,,---,0.00,VWS V14.01,2013-04-18 13:37:00,
2013-04-18 08:42:00,69.0,62.6,29.76,SSW,211,5.0,13.0,80,0.00,,---,0.00,VWS V14.01,2013-04-18 13:42:00,
2013-04-18 08:47:00,69.3,62.5,29.76,SW,235,5.0,14.0,79,0.00,,---,0.00,VWS V14.01,2013-04-18 13:47:00,
2013-04-18 08:52:00,69.8,63.0,29.75,WNW,285,2.0,14.0,79,0.00,,---,0.00,VWS V14.01,2013-04-18 13:52:00,
2013-04-18 08:57:00,70.1,62.9,29.75,SSW,200,5.0,15.0,78,0.00,,---,0.00,VWS V14.01,2013-04-18 13:57:00,
2013-04-18 09:00:00,70.1,62.9,29.75,SW,232,3.0,15.0,78,0.00,,---,0.00,VWS V14.01,2013-04-18 14:00:00,
2013-04-18 09:02:00,70.4,63.2,29.75,SW,214,11.0,11.0,78,0.00,,---,0.00,VWS V14.01,2013-04-18 14:02:00,
2013-04-18 09:07:00,70.9,63.3,29.75,SW,225,10.0,13.0,77,0.00,,---,0.00,VWS V14.01,2013-04-18 14:07:00,
2013-04-18 09:12:00,71.3,63.7,29.74,SSW,198,9.0,15.0,77,0.00,,---,0.00,VWS V14.01,2013-04-18 14:12:00,
2013-04-18 09:17:00,72.0,64.0,29.74,SW,218,5.0,17.0,76,0.00,,---,0.00,VWS V14.01,2013-04-18 14:17:00,
2013-04-18 09:22:00,72.5,64.5,29.74,SSE,160,6.0,17.0,76,0.00,,---,0.00,VWS V14.01,2013-04-18 14:22:00,
2013-04-18 09:27:00,73.1,64.7,29.73,East,89,3.0,17.0,75,0.00,,---,0.00,VWS V14.01,2013-04-18 14:27:00,
2013-04-18 09:30:00,73.2,64.8,29.73,ENE,75,3.0,17.0,75,0.00,,---,0.00,VWS V14.01,2013-04-18 14:30:00,
2013-04-18 09:32:00,73.6,64.8,29.73,SSE,148,8.0,15.0,74,0.00,,---,0.00,VWS V14.01,2013-04-18 14:32:00,
2013-04-18 09:37:00,73.9,64.7,29.73,SSW,198,5.0,15.0,73,0.00,,---,0.00,VWS V14.01,2013-04-18 14:37:00,
2013-04-18 09:42:00,74.3,65.1,29.73,SSW,193,17.0,17.0,73,0.00,,---,0.00,VWS V14.01,2013-04-18 14:42:00,
2013-04-18 09:47:00,74.5,64.9,29.72,South,186,2.0,17.0,72,0.00,,---,0.00,VWS V14.01,2013-04-18 14:47:00,
2013-04-18 09:52:00,74.9,65.7,29.72,South,183,4.0,18.0,73,0.00,,---,0.00,VWS V14.01,2013-04-18 14:52:00,
2013-04-18 09:57:00,75.6,65.5,29.72,SSW,212,7.0,18.0,71,0.00,,---,0.00,VWS V14.01,2013-04-18 14:57:00,
2013-04-18 10:00:00,75.6,65.5,29.72,SW,218,4.0,18.0,71,0.00,,---,0.00,VWS V14.01,2013-04-18 15:00:00,
2013-04-18 10:02:00,75.8,65.7,29.72,SSW,211,4.0,14.0,71,0.00,,---,0.00,VWS V14.01,2013-04-18 15:02:00,
2013-04-18 10:07:00,76.3,65.8,29.72,SSW,192,6.0,14.0,70,0.00,,---,0.00,VWS V14.01,2013-04-18 15:07:00,
2013-04-18 10:12:00,76.3,65.8,29.72,South,181,10.0,16.0,70,0.00,,---,0.00,VWS V14.01,2013-04-18 15:12:00,
2013-04-18 10:17:00,76.5,65.6,29.71,SW,236,5.0,16.0,69,0.00,,---,0.00,VWS V14.01,2013-04-18 15:17:00,
2013-04-18 10:22:00,77.0,65.2,29.70,SW,233,12.0,17.0,67,0.00,,---,0.00,VWS V14.01,2013-04-18 15:22:00,
2013-04-18 10:27:00,77.3,65.1,29.70,SW,217,10.0,17.0,66,0.00,,---,0.00,VWS V14.01,2013-04-18 15:27:00,
2013-04-18 10:30:00,77.3,65.1,29.70,South,188,5.0,17.0,66,0.00,,---,0.00,VWS V14.01,2013-04-18 15:30:00,
2013-04-18 10:32:00,77.4,65.2,29.70,SSW,204,5.0,20.0,66,0.00,,---,0.00,VWS V14.01,2013-04-18 15:32:00,
2013-04-18 10:37:00,77.7,65.4,29.70,SW,233,5.0,20.0,66,0.00,,---,0.00,VWS V14.01,2013-04-18 15:37:00,
2013-04-18 10:42:00,77.8,65.5,29.71,WSW,248,9.0,20.0,66,0.00,,---,0.00,VWS V14.01,2013-04-18 15:42:00,
2013-04-18 10:47:00,77.7,65.9,29.71,SSE,162,4.0,20.0,67,0.00,,---,0.00,VWS V14.01,2013-04-18 15:47:00,
2013-04-18 10:52:00,77.6,65.3,29.70,WSW,242,5.0,20.0,66,0.00,,---,0.00,VWS V14.01,2013-04-18 15:52:00,
2013-04-18 10:57:00,77.6,64.9,29.70,SSW,195,7.0,20.0,65,0.00,,---,0.00,VWS V14.01,2013-04-18 15:57:00,
2013-04-18 11:00:00,77.6,64.9,29.70,SSW,208,5.0,20.0,65,0.00,,---,0.00,VWS V14.01,2013-04-18 16:00:00,
2013-04-18 11:02:00,77.8,65.1,29.70,SSW,211,3.0,14.0,65,0.00,,---,0.00,VWS V14.01,2013-04-18 16:02:00,
2013-04-18 11:07:00,78.2,65.5,29.69,SW,226,19.0,19.0,65,0.00,,---,0.00,VWS V14.01,2013-04-18 16:07:00,
2013-04-18 11:12:00,78.5,65.3,29.69,SSE,162,4.0,19.0,64,0.00,,---,0.00,VWS V14.01,2013-04-18 16:12:00,
2013-04-18 11:17:00,79.0,65.3,29.69,SW,225,7.0,19.0,63,0.00,,---,0.00,VWS V14.01,2013-04-18 16:17:00,
2013-04-18 11:22:00,78.6,65.0,29.69,SW,235,6.0,21.0,63,0.00,,---,0.00,VWS V14.01,2013-04-18 16:22:00,
2013-04-18 11:27:00,78.5,64.4,29.69,WSW,252,7.0,21.0,62,0.00,,---,0.00,VWS V14.01,2013-04-18 16:27:00,
2013-04-18 11:30:00,78.4,65.2,29.69,SE,143,11.0,21.0,64,0.00,,---,0.00,VWS V14.01,2013-04-18 16:30:00,
2013-04-18 11:32:00,78.2,64.6,29.68,SSW,205,8.0,17.0,63,0.00,,---,0.00,VWS V14.01,2013-04-18 16:32:00,
2013-04-18 11:37:00,78.3,64.7,29.69,SE,127,6.0,31.0,63,0.00,,---,0.00,VWS V14.01,2013-04-18 16:37:00,
2013-04-18 11:42:00,78.5,64.9,29.69,SSW,193,8.0,31.0,63,0.00,,---,0.00,VWS V14.01,2013-04-18 16:42:00,
2013-04-18 11:47:00,78.6,64.5,29.68,SSW,211,6.0,31.0,62,0.00,,---,0.00,VWS V14.01,2013-04-18 16:47:00,
2013-04-18 11:52:00,78.5,64.4,29.68,SW,224,12.0,31.0,62,0.00,,---,0.00,VWS V14.01,2013-04-18 16:52:00,
2013-04-18 11:57:00,78.1,64.5,29.68,South,174,9.0,31.0,63,0.00,,---,0.00,VWS V14.01,2013-04-18 16:57:00,
2013-04-18 12:00:00,78.1,64.9,29.68,South,190,4.0,31.0,64,0.00,,---,0.00,VWS V14.01,2013-04-18 17:00:00,
2013-04-18 12:02:00,78.0,64.8,29.68,SW,229,4.0,20.0,64,0.00,,---,0.00,VWS V14.01,2013-04-18 17:02:00,
2013-04-18 12:07:00,78.1,64.9,29.68,West,271,12.0,20.0,64,0.00,,---,0.00,VWS V14.01,2013-04-18 17:07:00,
2013-04-18 12:12:00,78.3,64.7,29.68,SSE,154,4.0,20.0,63,0.00,,---,0.00,VWS V14.01,2013-04-18 17:12:00,
2013-04-18 12:17:00,79.1,64.5,29.67,SW,217,7.0,20.0,61,0.00,,---,0.00,VWS V14.01,2013-04-18 17:17:00,
2013-04-18 12:22:00,79.3,65.2,29.67,South,169,8.0,20.0,62,0.00,,---,0.00,VWS V14.01,2013-04-18 17:22:00,
2013-04-18 12:27:00,79.0,64.4,29.68,East,95,10.0,21.0,61,0.00,,---,0.00,VWS V14.01,2013-04-18 17:27:00,
2013-04-18 12:30:00,79.0,64.4,29.67,SW,228,10.0,21.0,61,0.00,,---,0.00,VWS V14.01,2013-04-18 17:30:00,
2013-04-18 12:32:00,78.5,64.0,29.67,SW,222,8.0,20.0,61,0.00,,---,0.00,VWS V14.01,2013-04-18 17:32:00,
2013-04-18 12:37:00,78.3,63.8,29.67,WSW,245,18.0,27.0,61,0.00,,---,0.00,VWS V14.01,2013-04-18 17:37:00,
2013-04-18 12:42:00,78.4,64.3,29.66,SW,229,17.0,27.0,62,0.00,,---,0.00,VWS V14.01,2013-04-18 17:42:00,
2013-04-18 12:47:00,78.2,64.1,29.66,SW,218,20.0,27.0,62,0.00,,---,0.00,VWS V14.01,2013-04-18 17:47:00,
2013-04-18 12:52:00,78.1,64.0,29.66,SSW,200,6.0,27.0,62,0.00,,---,0.00,VWS V14.01,2013-04-18 17:52:00,
2013-04-18 12:57:00,78.1,64.0,29.65,SSW,211,3.0,27.0,62,0.00,,---,0.00,VWS V14.01,2013-04-18 17:57:00,
2013-04-18 13:00:00,78.1,64.0,29.66,SSW,198,7.0,27.0,62,0.00,,---,0.00,VWS V14.01,2013-04-18 18:00:00,
2013-04-18 13:02:00,78.2,64.1,29.65,SSW,208,6.0,11.0,62,0.00,,---,0.00,VWS V14.01,2013-04-18 18:02:00,
2013-04-18 13:07:00,78.7,64.1,29.65,SSW,194,5.0,21.0,61,0.00,,---,0.00,VWS V14.01,2013-04-18 18:07:00,
2013-04-18 13:12:00,79.2,63.7,29.65,SSW,210,6.0,21.0,59,0.00,,---,0.00,VWS V14.01,2013-04-18 18:12:00,
2013-04-18 13:17:00,79.4,64.3,29.65,SSW,194,14.0,21.0,60,0.00,,---,0.00,VWS V14.01,2013-04-18 18:17:00,
2013-04-18 13:22:00,79.6,63.5,29.65,SSW,209,16.0,22.0,58,0.00,,---,0.00,VWS V14.01,2013-04-18 18:22:00,
2013-04-18 13:27:00,79.7,63.6,29.65,SSW,204,9.0,22.0,58,0.00,,---,0.00,VWS V14.01,2013-04-18 18:27:00,
2013-04-18 13:30:00,79.7,64.1,29.65,SSW,201,7.0,22.0,59,0.00,,---,0.00,VWS V14.01,2013-04-18 18:30:00,
2013-04-18 13:32:00,79.7,64.1,29.65,WSW,245,10.0,17.0,59,0.00,,---,0.00,VWS V14.01,2013-04-18 18:32:00,
2013-04-18 13:37:00,79.4,63.8,29.65,SSW,207,15.0,17.0,59,0.00,,---,0.00,VWS V14.01,2013-04-18 18:37:00,
2013-04-18 14:00:00,79.6,63.5,29.64,SW,225,9.0,22.0,58,0.00,,---,0.00,VWS V14.01,2013-04-18 19:00:00,
2013-04-18 14:30:00,76.2,66.9,29.67,West,270,10.0,23.0,73,0.00,,---,0.00,VWS V14.01,2013-04-18 19:30:00,
2013-04-18 14:59:00,64.0,60.4,29.69,SSW,207,2.0,10.0,88,0.09,,---,0.09,VWS V14.01,2013-04-18 19:59:00,
2013-04-18 15:00:00,79.6,63.5,29.64,SW,225,9.0,22.0,58,0.00,,---,0.00,VWS V14.01,2013-04-18 20:00:00,
2013-04-18 15:04:00,63.4,60.7,29.68,WNW,285,3.0,11.0,91,0.10,,---,0.10,VWS V14.01,2013-04-18 20:04:00,
2013-04-18 15:09:00,63.3,60.6,29.68,West,277,3.0,11.0,91,0.12,,---,0.12,VWS V14.01,2013-04-18 20:09:00,
2013-04-18 15:14:00,63.2,60.8,29.67,WSW,255,7.0,11.0,92,0.13,,---,0.13,VWS V14.01,2013-04-18 20:14:00,
2013-04-18 15:19:00,63.2,60.5,29.67,SW,229,3.0,11.0,91,0.13,,---,0.13,VWS V14.01,2013-04-18 20:19:00,
2013-04-18 15:24:00,63.3,60.6,29.67,West,262,4.0,11.0,91,0.13,,---,0.13,VWS V14.01,2013-04-18 20:24:00,
2013-04-18 15:29:00,63.3,60.3,29.67,West,277,4.0,6.0,90,0.14,,---,0.14,VWS V14.01,2013-04-18 20:29:00,
2013-04-18 15:30:00,63.3,60.6,29.67,WNW,285,1.0,11.0,91,0.14,,---,0.14,VWS V14.01,2013-04-18 20:30:00,
2013-04-18 15:34:00,63.4,60.1,29.68,ESE,115,3.0,6.0,89,0.15,,---,0.15,VWS V14.01,2013-04-18 20:34:00,
2013-04-18 15:39:00,63.5,60.2,29.68,West,259,1.0,8.0,89,0.16,,---,0.16,VWS V14.01,2013-04-18 20:39:00,
2013-04-18 15:44:00,63.3,60.3,29.68,WSW,243,0.0,8.0,90,0.16,,---,0.16,VWS V14.01,2013-04-18 20:44:00,
2013-04-18 15:49:00,63.2,60.2,29.69,SW,235,2.0,8.0,90,0.16,,---,0.16,VWS V14.01,2013-04-18 20:49:00,
2013-04-18 15:54:00,63.2,59.9,29.69,SW,226,3.0,8.0,89,0.17,,---,0.17,VWS V14.01,2013-04-18 20:54:00,
2013-04-18 15:59:00,63.3,60.3,29.67,WSW,246,1.0,5.0,90,0.03,,---,0.17,VWS V14.01,2013-04-18 20:59:00,
2013-04-18 16:00:00,63.2,60.2,29.67,SW,228,5.0,8.0,90,0.17,,---,0.17,VWS V14.01,2013-04-18 21:00:00,
2013-04-18 16:04:00,63.7,60.7,29.67,WNW,288,3.0,6.0,90,0.03,,---,0.17,VWS V14.01,2013-04-18 21:04:00,
2013-04-18 16:09:00,64.1,60.8,29.67,SW,219,3.0,7.0,89,0.03,,---,0.17,VWS V14.01,2013-04-18 21:09:00,
2013-04-18 16:14:00,64.2,60.9,29.66,WSW,253,3.0,7.0,89,0.03,,---,0.17,VWS V14.01,2013-04-18 21:14:00,
2013-04-18 16:19:00,64.3,61.0,29.67,SW,222,3.0,7.0,89,0.03,,---,0.17,VWS V14.01,2013-04-18 21:19:00,
2013-04-18 16:24:00,64.3,61.0,29.67,WSW,240,1.0,7.0,89,0.03,,---,0.17,VWS V14.01,2013-04-18 21:24:00,
2013-04-18 16:29:00,64.2,60.6,29.69,WNW,291,2.0,5.0,88,0.03,,---,0.17,VWS V14.01,2013-04-18 21:29:00,
2013-04-18 16:30:00,64.2,60.6,29.69,WSW,245,4.0,7.0,88,0.03,,---,0.17,VWS V14.01,2013-04-18 21:30:00,
2013-04-18 16:34:00,64.1,60.5,29.68,West,274,6.0,11.0,88,0.03,,---,0.17,VWS V14.01,2013-04-18 21:34:00,
2013-04-18 16:39:00,63.9,60.3,29.68,SW,228,3.0,11.0,88,0.03,,---,0.17,VWS V14.01,2013-04-18 21:39:00,
2013-04-18 16:44:00,63.8,60.2,29.67,SW,233,7.0,11.0,88,0.03,,---,0.17,VWS V14.01,2013-04-18 21:44:00,
2013-04-18 16:49:00,63.6,60.0,29.68,SW,236,3.0,11.0,88,0.04,,---,0.18,VWS V14.01,2013-04-18 21:49:00,
2013-04-18 16:54:00,63.3,59.7,29.68,West,273,6.0,11.0,88,0.04,,---,0.18,VWS V14.01,2013-04-18 21:54:00,
2013-04-18 16:59:00,63.1,59.8,29.69,West,271,4.0,6.0,89,0.01,,---,0.18,VWS V14.01,2013-04-18 21:59:00,
2013-04-18 17:00:00,63.1,59.8,29.69,SW,233,4.0,11.0,89,0.04,,---,0.18,VWS V14.01,2013-04-18 22:00:00,
2013-04-18 17:04:00,62.9,59.6,29.68,WNW,286,2.0,6.0,89,0.01,,---,0.18,VWS V14.01,2013-04-18 22:04:00,
2013-04-18 17:09:00,62.7,59.7,29.67,West,271,2.0,6.0,90,0.01,,---,0.18,VWS V14.01,2013-04-18 22:09:00,
2013-04-18 17:14:00,62.5,59.5,29.67,West,269,2.0,6.0,90,0.01,,---,0.18,VWS V14.01,2013-04-18 22:14:00,
2013-04-18 17:19:00,62.2,59.5,29.67,WSW,243,2.0,6.0,91,0.01,,---,0.18,VWS V14.01,2013-04-18 22:19:00,
2013-04-18 17:24:00,62.0,59.3,29.67,SW,229,4.0,8.0,91,0.04,,---,0.21,VWS V14.01,2013-04-18 22:24:00,
2013-04-18 17:29:00,61.8,59.5,29.68,SSW,204,1.0,5.0,92,0.05,,---,0.22,VWS V14.01,2013-04-18 22:29:00,
2013-04-18 17:30:00,61.9,59.6,29.68,WSW,253,5.0,8.0,92,0.05,,---,0.22,VWS V14.01,2013-04-18 22:30:00,
2013-04-18 17:34:00,61.6,59.3,29.68,SW,232,3.0,5.0,92,0.05,,---,0.22,VWS V14.01,2013-04-18 22:34:00,
2013-04-18 17:39:00,61.5,59.2,29.67,SSW,194,1.0,5.0,92,0.05,,---,0.22,VWS V14.01,2013-04-18 22:39:00,
2013-04-18 17:44:00,61.4,59.4,29.67,WSW,238,0.0,5.0,93,0.06,,---,0.23,VWS V14.01,2013-04-18 22:44:00,
2013-04-18 17:49:00,61.3,59.3,29.67,WSW,245,1.0,5.0,93,0.06,,---,0.23,VWS V14.01,2013-04-18 22:49:00,
2013-04-18 17:54:00,61.1,59.1,29.69,SW,225,0.0,5.0,93,0.06,,---,0.23,VWS V14.01,2013-04-18 22:54:00,
2013-04-18 17:59:00,61.1,59.4,29.68,West,259,2.0,3.0,94,0.05,,---,0.23,VWS V14.01,2013-04-18 22:59:00,
2013-04-18 18:00:00,61.1,59.4,29.69,West,277,1.0,5.0,94,0.06,,---,0.23,VWS V14.01,2013-04-18 23:00:00,
2013-04-18 18:04:00,61.0,59.3,29.71,WSW,257,3.0,6.0,94,0.07,,---,0.25,VWS V14.01,2013-04-18 23:04:00,
2013-04-18 18:09:00,60.8,59.1,29.69,West,259,5.0,9.0,94,0.11,,---,0.29,VWS V14.01,2013-04-18 23:09:00,
2013-04-18 18:14:00,60.7,59.0,29.69,West,261,1.0,9.0,94,0.12,,---,0.30,VWS V14.01,2013-04-18 23:14:00,
2013-04-18 18:19:00,60.6,58.9,29.69,WSW,255,0.0,9.0,94,0.15,,---,0.33,VWS V14.01,2013-04-18 23:19:00,
2013-04-18 18:24:00,60.4,58.7,29.68,West,266,3.0,9.0,94,0.15,,---,0.33,VWS V14.01,2013-04-18 23:24:00,
2013-04-18 18:29:00,60.4,58.7,29.69,WSW,243,2.0,4.0,94,0.12,,---,0.34,VWS V14.01,2013-04-18 23:29:00,
2013-04-18 18:30:00,60.4,58.7,29.68,WSW,242,3.0,9.0,94,0.16,,---,0.34,VWS V14.01,2013-04-18 23:30:00,
2013-04-18 18:34:00,60.4,58.7,29.69,SW,225,1.0,5.0,94,0.13,,---,0.35,VWS V14.01,2013-04-18 23:34:00,
2013-04-18 18:39:00,60.3,58.6,29.69,WNW,283,2.0,5.0,94,0.14,,---,0.36,VWS V14.01,2013-04-18 23:39:00,
2013-04-18 18:44:00,60.4,58.7,29.68,West,259,10.0,10.0,94,0.16,,---,0.38,VWS V14.01,2013-04-18 23:44:00,
2013-04-18 18:49:00,60.4,58.7,29.68,West,269,5.0,10.0,94,0.18,,---,0.40,VWS V14.01,2013-04-18 23:49:00,
2013-04-18 18:54:00,60.4,58.4,29.69,West,263,2.0,10.0,93,0.19,,---,0.41,VWS V14.01,2013-04-18 23:54:00,
2013-04-18 18:59:00,60.4,58.4,29.69,SW,232,8.0,10.0,93,0.19,,---,0.42,VWS V14.01,2013-04-18 23:59:00,
2013-04-18 19:00:00,60.4,58.4,29.68,WNW,297,3.0,10.0,93,0.19,,---,0.41,VWS V14.01,2013-04-19 00:00:00,
2013-04-18 19:04:00,60.4,58.4,29.69,WSW,238,4.0,10.0,93,0.19,,---,0.42,VWS V14.01,2013-04-19 00:04:00,
2013-04-18 19:09:00,60.3,58.3,29.68,SW,225,3.0,10.0,93,0.20,,---,0.43,VWS V14.01,2013-04-19 00:09:00,
2013-04-18 19:14:00,60.3,58.3,29.67,SW,216,1.0,10.0,93,0.20,,---,0.43,VWS V14.01,2013-04-19 00:14:00,
2013-04-18 19:19:00,60.1,58.1,29.67,WSW,243,4.0,10.0,93,0.20,,---,0.43,VWS V14.01,2013-04-19 00:19:00,
2013-04-18 19:24:00,60.1,58.1,29.67,SW,221,1.0,10.0,93,0.22,,---,0.45,VWS V14.01,2013-04-19 00:24:00,
2013-04-18 19:29:00,60.0,58.0,29.67,SW,218,1.0,2.0,93,0.11,,---,0.45,VWS V14.01,2013-04-19 00:29:00,
2013-04-18 19:30:00,60.0,58.0,29.67,SW,215,1.0,10.0,93,0.22,,---,0.45,VWS V14.01,2013-04-19 00:30:00,
2013-04-18 19:34:00,59.9,57.9,29.68,SW,214,4.0,5.0,93,0.11,,---,0.45,VWS V14.01,2013-04-19 00:34:00,
2013-04-18 19:39:00,59.8,58.1,29.69,WNW,290,2.0,8.0,94,0.12,,---,0.46,VWS V14.01,2013-04-19 00:39:00,
2013-04-18 19:44:00,59.7,58.0,29.68,SW,231,2.0,8.0,94,0.13,,---,0.47,VWS V14.01,2013-04-19 00:44:00,
2013-04-18 19:49:00,59.7,58.0,29.69,SW,236,4.0,9.0,94,0.14,,---,0.48,VWS V14.01,2013-04-19 00:49:00,
2013-04-18 19:54:00,59.8,58.1,29.70,WSW,239,7.0,9.0,94,0.16,,---,0.50,VWS V14.01,2013-04-19 00:54:00,
2013-04-18 19:59:00,59.7,58.0,29.69,WSW,253,1.0,3.0,94,0.11,,---,0.52,VWS V14.01,2013-04-19 00:59:00,
2013-04-18 20:00:00,59.7,58.0,29.69,SSE,166,1.0,9.0,94,0.18,,---,0.52,VWS V14.01,2013-04-19 01:00:00,
2013-04-18 20:04:00,59.6,57.9,29.69,WSW,239,1.0,5.0,94,0.11,,---,0.52,VWS V14.01,2013-04-19 01:04:00,
2013-04-18 20:09:00,59.5,57.8,29.70,SW,218,3.0,7.0,94,0.12,,---,0.53,VWS V14.01,2013-04-19 01:09:00,
2013-04-18 20:14:00,59.5,57.8,29.70,WSW,257,0.0,7.0,94,0.13,,---,0.54,VWS V14.01,2013-04-19 01:14:00,
2013-04-18 20:19:00,59.3,57.9,29.70,SW,222,2.0,7.0,95,0.15,,---,0.56,VWS V14.01,2013-04-19 01:19:00,
2013-04-18 20:24:00,59.3,57.9,29.70,SW,221,4.0,7.0,95,0.16,,---,0.57,VWS V14.01,2013-04-19 01:24:00,
2013-04-18 20:29:00,59.2,57.8,29.70,WSW,250,4.0,6.0,95,0.12,,---,0.57,VWS V14.01,2013-04-19 01:29:00,
2013-04-18 20:30:00,59.3,57.9,29.70,SW,232,5.0,7.0,95,0.16,,---,0.57,VWS V14.01,2013-04-19 01:30:00,
2013-04-18 20:34:00,59.2,57.8,29.71,SW,231,2.0,8.0,95,0.12,,---,0.57,VWS V14.01,2013-04-19 01:34:00,
2013-04-18 20:39:00,59.2,57.8,29.70,WSW,239,0.0,8.0,95,0.13,,---,0.58,VWS V14.01,2013-04-19 01:39:00,
2013-04-18 20:44:00,59.1,57.7,29.69,SW,219,0.0,8.0,95,0.13,,---,0.58,VWS V14.01,2013-04-19 01:44:00,
2013-04-18 20:49:00,59.1,57.7,29.69,SW,226,3.0,8.0,95,0.13,,---,0.58,VWS V14.01,2013-04-19 01:49:00,
2013-04-18 20:54:00,59.0,57.6,29.69,SSW,201,0.0,8.0,95,0.13,,---,0.58,VWS V14.01,2013-04-19 01:54:00,
2013-04-18 20:59:00,58.9,57.8,29.69,SSW,201,0.0,0.0,96,0.06,,---,0.58,VWS V14.01,2013-04-19 01:59:00,
2013-04-18 21:00:00,59.0,57.6,29.69,SSW,201,0.0,8.0,95,0.13,,---,0.58,VWS V14.01,2013-04-19 02:00:00,
2013-04-18 21:04:00,58.9,57.8,29.68,SW,229,0.0,1.0,96,0.06,,---,0.58,VWS V14.01,2013-04-19 02:04:00,
2013-04-18 21:09:00,58.8,57.7,29.67,WSW,242,0.0,1.0,96,0.06,,---,0.58,VWS V14.01,2013-04-19 02:09:00,
2013-04-18 21:14:00,58.8,57.7,29.66,WSW,242,0.0,1.0,96,0.06,,---,0.58,VWS V14.01,2013-04-19 02:14:00,
2013-04-18 21:19:00,58.7,57.6,29.65,WSW,243,0.0,1.0,96,0.06,,---,0.58,VWS V14.01,2013-04-19 02:19:00,
2013-04-18 21:24:00,58.6,57.5,29.65,WSW,242,0.0,1.0,96,0.06,,---,0.58,VWS V14.01,2013-04-19 02:24:00,
2013-04-18 21:29:00,58.6,57.5,29.65,WSW,242,0.0,0.0,96,0.01,,---,0.58,VWS V14.01,2013-04-19 02:29:00,
2013-04-18 21:30:00,58.6,57.5,29.65,WSW,242,0.0,1.0,96,0.06,,---,0.58,VWS V14.01,2013-04-19 02:30:00,
2013-04-18 21:34:00,58.6,57.5,29.64,SSE,148,0.0,1.0,96,0.01,,---,0.58,VWS V14.01,2013-04-19 02:34:00,
2013-04-18 21:39:00,58.5,57.4,29.64,SSE,148,0.0,1.0,96,0.01,,---,0.58,VWS V14.01,2013-04-19 02:39:00,
2013-04-18 21:44:00,58.4,57.6,29.64,SSE,148,0.0,1.0,97,0.01,,---,0.58,VWS V14.01,2013-04-19 02:44:00,
2013-04-18 21:49:00,58.4,57.6,29.64,SSE,148,0.0,1.0,97,0.01,,---,0.58,VWS V14.01,2013-04-19 02:49:00,
2013-04-18 21:54:00,58.3,57.5,29.64,SSE,148,0.0,1.0,97,0.01,,---,0.58,VWS V14.01,2013-04-19 02:54:00,
2013-04-18 21:59:00,58.3,57.5,29.64,SSE,148,0.0,0.0,97,0.00,,---,0.58,VWS V14.01,2013-04-19 02:59:00,
2013-04-18 22:00:00,58.3,57.5,29.64,SSE,148,0.0,1.0,97,0.01,,---,0.58,VWS V14.01,2013-04-19 03:00:00,
2013-04-18 22:04:00,58.3,57.5,29.64,SSE,148,0.0,0.0,97,0.00,,---,0.58,VWS V14.01,2013-04-19 03:04:00,
2013-04-18 22:09:00,58.3,57.5,29.62,SSE,148,0.0,0.0,97,0.00,,---,0.58,VWS V14.01,2013-04-19 03:09:00,
2013-04-18 22:14:00,58.3,57.5,29.62,SSE,157,1.0,2.0,97,0.00,,---,0.58,VWS V14.01,2013-04-19 03:14:00,
2013-04-18 22:19:00,58.3,57.5,29.60,NNE,22,4.0,4.0,97,0.00,,---,0.58,VWS V14.01,2013-04-19 03:19:00,
2013-04-18 22:24:00,58.3,57.7,29.62,SSW,204,0.0,4.0,98,0.00,,---,0.58,VWS V14.01,2013-04-19 03:24:00,
2013-04-18 22:29:00,58.3,57.7,29.60,SW,215,3.0,3.0,98,0.00,,---,0.58,VWS V14.01,2013-04-19 03:29:00,
2013-04-18 22:30:00,58.3,57.7,29.60,ENE,74,0.0,4.0,98,0.00,,---,0.58,VWS V14.01,2013-04-19 03:30:00,
2013-04-18 22:34:00,58.3,57.7,29.59,North,5,1.0,3.0,98,0.00,,---,0.58,VWS V14.01,2013-04-19 03:34:00,
2013-04-18 22:39:00,58.3,57.7,29.58,ESE,120,1.0,3.0,98,0.00,,---,0.58,VWS V14.01,2013-04-19 03:39:00,
2013-04-18 22:44:00,58.2,57.6,29.59,West,263,3.0,3.0,98,0.00,,---,0.58,VWS V14.01,2013-04-19 03:44:00,
2013-04-18 22:49:00,58.2,57.6,29.59,SW,215,4.0,4.0,98,0.00,,---,0.58,VWS V14.01,2013-04-19 03:49:00,
2013-04-18 22:54:00,58.2,57.6,29.58,NNE,30,2.0,4.0,98,0.00,,---,0.58,VWS V14.01,2013-04-19 03:54:00,
2013-04-18 22:59:00,58.2,57.6,29.59,SSE,163,0.0,1.0,98,0.00,,---,0.00,VWS V14.01,2013-04-19 03:59:00,
2013-04-18 23:00:00,58.2,57.6,29.59,SSE,164,1.0,4.0,98,0.00,,---,0.58,VWS V14.01,2013-04-19 04:00:00,
2013-04-18 23:01:00,58.2,57.6,29.59,ESE,111,0.0,1.0,98,0.00,,---,0.00,VWS V14.01,2013-04-19 04:01:00,
2013-04-18 23:06:00,58.1,57.5,29.58,ESE,112,0.0,1.0,98,0.00,,---,0.00,VWS V14.01,2013-04-19 04:06:00,
2013-04-18 23:11:00,58.1,57.5,29.58,SSW,194,0.0,1.0,98,0.00,,---,0.00,VWS V14.01,2013-04-19 04:11:00,
2013-04-18 23:16:00,58.1,57.5,29.57,SSE,162,0.0,1.0,98,0.00,,---,0.00,VWS V14.01,2013-04-19 04:16:00,
2013-04-18 23:21:00,58.1,57.5,29.57,SW,224,0.0,1.0,98,0.00,,---,0.00,VWS V14.01,2013-04-19 04:21:00,
2013-04-18 23:26:00,58.1,57.5,29.57,SW,222,0.0,2.0,98,0.00,,---,0.00,VWS V14.01,2013-04-19 04:26:00,
2013-04-18 23:30:00,58.0,57.4,29.57,SW,222,0.0,2.0,98,0.00,,---,0.00,VWS V14.01,2013-04-19 04:30:00,
2013-04-18 23:31:00,58.0,57.4,29.57,SW,222,0.0,1.0,98,0.00,,---,0.00,VWS V14.01,2013-04-19 04:31:00,
2013-04-18 23:36:00,58.1,57.5,29.57,WSW,240,0.0,1.0,98,0.00,,---,0.00,VWS V14.01,2013-04-19 04:36:00,
2013-04-18 23:41:00,58.0,57.4,29.57,WSW,246,0.0,2.0,98,0.00,,---,0.00,VWS V14.01,2013-04-19 04:41:00,
2013-04-18 23:46:00,58.0,57.4,29.56,SW,236,0.0,2.0,98,0.00,,---,0.00,VWS V14.01,2013-04-19 04:46:00,
2013-04-18 23:51:00,57.9,57.3,29.56,SW,236,0.0,2.0,98,0.00,,---,0.00,VWS V14.01,2013-04-19 04:51:00,
2013-04-18 23:56:00,57.9,57.3,29.55,SW,236,0.0,2.0,98,0.00,,---,0.00,VWS V14.01,2013-04-19 04:56:00,